sensor_id;sensor_type;location;lat;lon;timestamp;P1;durP1;ratioP1;P2;durP2;ratioP2
51224;SDS011;37298;42.688;23.312;2024-03-17T00:01:57;38.03;;;22.98;;
51224;SDS011;37298;42.688;23.312;2024-03-17T00:04:23;38.20;;;21.80;;
51224;SDS011;37298;42.688;23.312;2024-03-17T00:06:50;32.92;;;19.77;;
51224;SDS011;37298;42.688;23.312;2024-03-17T00:09:16;36.90;;;22.70;;
51224;SDS011;37298;42.688;23.312;2024-03-17T00:11:43;40.35;;;22.55;;
51224;SDS011;37298;42.688;23.312;2024-03-17T00:14:10;34.88;;;20.45;;
51224;SDS011;37298;42.688;23.312;2024-03-17T00:16:37;40.35;;;21.92;;
51224;SDS011;37298;42.688;23.312;2024-03-17T00:19:04;42.25;;;22.42;;
51224;SDS011;37298;42.688;23.312;2024-03-17T00:21:31;37.03;;;21.23;;
51224;SDS011;37298;42.688;23.312;2024-03-17T00:23:58;32.85;;;19.42;;
51224;SDS011;37298;42.688;23.312;2024-03-17T00:26:24;36.80;;;21.80;;
51224;SDS011;37298;42.688;23.312;2024-03-17T00:28:50;41.75;;;23.20;;
51224;SDS011;37298;42.688;23.312;2024-03-17T00:31:17;34.75;;;21.88;;
51224;SDS011;37298;42.688;23.312;2024-03-17T00:33:43;39.42;;;21.98;;
51224;SDS011;37298;42.688;23.312;2024-03-17T00:36:10;35.97;;;21.27;;
51224;SDS011;37298;42.688;23.312;2024-03-17T00:38:36;35.15;;;21.15;;
51224;SDS011;37298;42.688;23.312;2024-03-17T00:41:03;34.60;;;21.60;;
51224;SDS011;37298;42.688;23.312;2024-03-17T00:43:29;38.13;;;22.35;;
51224;SDS011;37298;42.688;23.312;2024-03-17T00:45:55;39.63;;;22.13;;
51224;SDS011;37298;42.688;23.312;2024-03-17T00:48:21;35.85;;;22.33;;
51224;SDS011;37298;42.688;23.312;2024-03-17T00:50:54;37.10;;;21.88;;
51224;SDS011;37298;42.688;23.312;2024-03-17T00:53:20;38.40;;;22.73;;
51224;SDS011;37298;42.688;23.312;2024-03-17T00:55:51;35.90;;;21.08;;
51224;SDS011;37298;42.688;23.312;2024-03-17T01:00:43;30.58;;;20.08;;
51224;SDS011;37298;42.688;23.312;2024-03-17T01:03:09;37.35;;;21.00;;
51224;SDS011;37298;42.688;23.312;2024-03-17T01:05:37;39.67;;;22.17;;
51224;SDS011;37298;42.688;23.312;2024-03-17T01:08:07;34.53;;;20.65;;
51224;SDS011;37298;42.688;23.312;2024-03-17T01:10:36;36.92;;;21.92;;
51224;SDS011;37298;42.688;23.312;2024-03-17T01:13:02;37.15;;;21.80;;
51224;SDS011;37298;42.688;23.312;2024-03-17T01:15:29;36.92;;;23.38;;
51224;SDS011;37298;42.688;23.312;2024-03-17T01:17:55;35.83;;;21.48;;
51224;SDS011;37298;42.688;23.312;2024-03-17T01:20:22;31.27;;;19.30;;
51224;SDS011;37298;42.688;23.312;2024-03-17T01:22:48;35.83;;;22.00;;
51224;SDS011;37298;42.688;23.312;2024-03-17T01:25:14;33.53;;;19.13;;
51224;SDS011;37298;42.688;23.312;2024-03-17T01:27:41;37.75;;;21.85;;
51224;SDS011;37298;42.688;23.312;2024-03-17T01:30:09;36.78;;;21.08;;
51224;SDS011;37298;42.688;23.312;2024-03-17T01:32:35;32.40;;;21.05;;
51224;SDS011;37298;42.688;23.312;2024-03-17T01:35:03;35.97;;;20.08;;
51224;SDS011;37298;42.688;23.312;2024-03-17T01:37:29;31.50;;;20.17;;
51224;SDS011;37298;42.688;23.312;2024-03-17T01:39:57;36.38;;;22.33;;
51224;SDS011;37298;42.688;23.312;2024-03-17T01:42:23;39.72;;;22.98;;
51224;SDS011;37298;42.688;23.312;2024-03-17T01:44:50;42.25;;;24.27;;
51224;SDS011;37298;42.688;23.312;2024-03-17T01:47:16;33.70;;;21.85;;
51224;SDS011;37298;42.688;23.312;2024-03-17T01:49:44;36.70;;;22.90;;
51224;SDS011;37298;42.688;23.312;2024-03-17T01:52:10;38.90;;;22.42;;
51224;SDS011;37298;42.688;23.312;2024-03-17T01:54:37;36.45;;;22.67;;
51224;SDS011;37298;42.688;23.312;2024-03-17T01:57:04;39.42;;;23.27;;
51224;SDS011;37298;42.688;23.312;2024-03-17T01:59:30;31.98;;;21.80;;
51224;SDS011;37298;42.688;23.312;2024-03-17T02:01:57;34.50;;;21.08;;
51224;SDS011;37298;42.688;23.312;2024-03-17T02:04:23;42.00;;;20.45;;
51224;SDS011;37298;42.688;23.312;2024-03-17T02:06:49;33.58;;;20.17;;
51224;SDS011;37298;42.688;23.312;2024-03-17T02:09:16;35.25;;;21.30;;
51224;SDS011;37298;42.688;23.312;2024-03-17T02:11:44;35.00;;;21.00;;
51224;SDS011;37298;42.688;23.312;2024-03-17T02:14:11;37.38;;;22.05;;
51224;SDS011;37298;42.688;23.312;2024-03-17T02:16:40;34.15;;;19.98;;
51224;SDS011;37298;42.688;23.312;2024-03-17T02:19:06;33.60;;;21.58;;
51224;SDS011;37298;42.688;23.312;2024-03-17T02:21:32;33.47;;;21.58;;
51224;SDS011;37298;42.688;23.312;2024-03-17T02:23:59;35.03;;;21.15;;
51224;SDS011;37298;42.688;23.312;2024-03-17T02:26:25;32.30;;;20.83;;
51224;SDS011;37298;42.688;23.312;2024-03-17T02:28:52;31.95;;;19.55;;
51224;SDS011;37298;42.688;23.312;2024-03-17T02:31:18;33.55;;;20.17;;
51224;SDS011;37298;42.688;23.312;2024-03-17T02:33:45;34.47;;;20.15;;
51224;SDS011;37298;42.688;23.312;2024-03-17T02:36:11;38.15;;;21.60;;
51224;SDS011;37298;42.688;23.312;2024-03-17T02:38:38;30.73;;;20.85;;
51224;SDS011;37298;42.688;23.312;2024-03-17T02:41:23;30.52;;;20.85;;
51224;SDS011;37298;42.688;23.312;2024-03-17T02:43:50;36.58;;;22.38;;
51224;SDS011;37298;42.688;23.312;2024-03-17T02:46:16;35.40;;;20.80;;
51224;SDS011;37298;42.688;23.312;2024-03-17T02:48:45;35.90;;;21.50;;
51224;SDS011;37298;42.688;23.312;2024-03-17T02:51:12;36.15;;;22.15;;
51224;SDS011;37298;42.688;23.312;2024-03-17T02:53:40;33.97;;;21.33;;
51224;SDS011;37298;42.688;23.312;2024-03-17T02:56:06;39.35;;;22.55;;
51224;SDS011;37298;42.688;23.312;2024-03-17T02:58:34;33.95;;;20.83;;
51224;SDS011;37298;42.688;23.312;2024-03-17T03:01:01;40.08;;;21.92;;
51224;SDS011;37298;42.688;23.312;2024-03-17T03:03:27;39.72;;;22.60;;
51224;SDS011;37298;42.688;23.312;2024-03-17T03:05:54;32.42;;;20.08;;
51224;SDS011;37298;42.688;23.312;2024-03-17T03:08:22;35.40;;;20.95;;
51224;SDS011;37298;42.688;23.312;2024-03-17T03:10:49;34.15;;;21.15;;
51224;SDS011;37298;42.688;23.312;2024-03-17T03:13:16;34.63;;;22.02;;
51224;SDS011;37298;42.688;23.312;2024-03-17T03:15:43;33.63;;;20.67;;
51224;SDS011;37298;42.688;23.312;2024-03-17T03:18:09;36.35;;;21.75;;
51224;SDS011;37298;42.688;23.312;2024-03-17T03:20:36;31.80;;;20.88;;
51224;SDS011;37298;42.688;23.312;2024-03-17T03:23:02;39.55;;;22.33;;
51224;SDS011;37298;42.688;23.312;2024-03-17T03:25:29;35.58;;;20.85;;
51224;SDS011;37298;42.688;23.312;2024-03-17T03:27:55;35.13;;;21.70;;
51224;SDS011;37298;42.688;23.312;2024-03-17T03:30:23;35.30;;;21.80;;
51224;SDS011;37298;42.688;23.312;2024-03-17T03:32:50;33.85;;;21.05;;
51224;SDS011;37298;42.688;23.312;2024-03-17T03:35:17;30.55;;;19.77;;
51224;SDS011;37298;42.688;23.312;2024-03-17T03:37:43;33.90;;;21.98;;
51224;SDS011;37298;42.688;23.312;2024-03-17T03:40:10;32.33;;;20.42;;
51224;SDS011;37298;42.688;23.312;2024-03-17T03:42:42;32.05;;;20.52;;
51224;SDS011;37298;42.688;23.312;2024-03-17T03:45:09;34.95;;;21.95;;
51224;SDS011;37298;42.688;23.312;2024-03-17T03:50:05;35.17;;;20.45;;
51224;SDS011;37298;42.688;23.312;2024-03-17T03:52:31;34.03;;;21.20;;
51224;SDS011;37298;42.688;23.312;2024-03-17T03:54:58;35.33;;;21.23;;
51224;SDS011;37298;42.688;23.312;2024-03-17T03:57:24;36.10;;;21.48;;
51224;SDS011;37298;42.688;23.312;2024-03-17T03:59:54;36.95;;;21.48;;
51224;SDS011;37298;42.688;23.312;2024-03-17T04:02:21;35.45;;;21.38;;
51224;SDS011;37298;42.688;23.312;2024-03-17T04:04:47;35.50;;;21.45;;
51224;SDS011;37298;42.688;23.312;2024-03-17T04:07:14;31.33;;;21.17;;
51224;SDS011;37298;42.688;23.312;2024-03-17T04:09:42;34.90;;;21.73;;
51224;SDS011;37298;42.688;23.312;2024-03-17T04:12:08;35.85;;;22.42;;
51224;SDS011;37298;42.688;23.312;2024-03-17T04:14:35;40.00;;;21.17;;
51224;SDS011;37298;42.688;23.312;2024-03-17T04:17:02;34.63;;;19.50;;
51224;SDS011;37298;42.688;23.312;2024-03-17T04:19:29;33.10;;;21.02;;
51224;SDS011;37298;42.688;23.312;2024-03-17T04:21:56;39.75;;;21.15;;
51224;SDS011;37298;42.688;23.312;2024-03-17T04:24:23;37.08;;;20.45;;
51224;SDS011;37298;42.688;23.312;2024-03-17T04:26:49;34.38;;;21.73;;
51224;SDS011;37298;42.688;23.312;2024-03-17T04:29:16;39.70;;;21.75;;
51224;SDS011;37298;42.688;23.312;2024-03-17T04:31:42;40.08;;;22.27;;
51224;SDS011;37298;42.688;23.312;2024-03-17T04:34:08;35.90;;;21.75;;
51224;SDS011;37298;42.688;23.312;2024-03-17T04:36:35;34.30;;;20.60;;
51224;SDS011;37298;42.688;23.312;2024-03-17T04:39:01;37.28;;;20.35;;
51224;SDS011;37298;42.688;23.312;2024-03-17T04:41:29;34.42;;;21.65;;
51224;SDS011;37298;42.688;23.312;2024-03-17T04:43:56;35.42;;;20.55;;
51224;SDS011;37298;42.688;23.312;2024-03-17T04:46:22;33.97;;;20.17;;
51224;SDS011;37298;42.688;23.312;2024-03-17T04:48:49;34.78;;;20.58;;
51224;SDS011;37298;42.688;23.312;2024-03-17T04:51:15;39.45;;;21.88;;
51224;SDS011;37298;42.688;23.312;2024-03-17T04:53:41;42.70;;;21.30;;
51224;SDS011;37298;42.688;23.312;2024-03-17T04:56:08;38.20;;;23.02;;
51224;SDS011;37298;42.688;23.312;2024-03-17T04:58:35;38.78;;;21.58;;
51224;SDS011;37298;42.688;23.312;2024-03-17T05:01:05;34.50;;;20.35;;
51224;SDS011;37298;42.688;23.312;2024-03-17T05:03:32;39.35;;;22.33;;
51224;SDS011;37298;42.688;23.312;2024-03-17T05:05:59;33.35;;;21.08;;
51224;SDS011;37298;42.688;23.312;2024-03-17T05:08:27;38.80;;;22.17;;
51224;SDS011;37298;42.688;23.312;2024-03-17T05:10:55;33.70;;;20.98;;
51224;SDS011;37298;42.688;23.312;2024-03-17T05:13:22;34.22;;;21.27;;
51224;SDS011;37298;42.688;23.312;2024-03-17T05:15:49;35.47;;;19.98;;
51224;SDS011;37298;42.688;23.312;2024-03-17T05:18:15;30.48;;;19.42;;
51224;SDS011;37298;42.688;23.312;2024-03-17T05:20:41;35.03;;;20.67;;
51224;SDS011;37298;42.688;23.312;2024-03-17T05:23:08;32.45;;;20.33;;
51224;SDS011;37298;42.688;23.312;2024-03-17T05:25:36;32.40;;;20.52;;
51224;SDS011;37298;42.688;23.312;2024-03-17T05:28:03;31.92;;;19.83;;
51224;SDS011;37298;42.688;23.312;2024-03-17T05:30:30;34.33;;;20.33;;
51224;SDS011;37298;42.688;23.312;2024-03-17T05:32:57;33.10;;;20.95;;
51224;SDS011;37298;42.688;23.312;2024-03-17T05:35:23;33.63;;;20.05;;
51224;SDS011;37298;42.688;23.312;2024-03-17T05:37:50;35.30;;;19.70;;
51224;SDS011;37298;42.688;23.312;2024-03-17T05:40:17;35.22;;;21.58;;
51224;SDS011;37298;42.688;23.312;2024-03-17T05:42:43;30.75;;;20.33;;
51224;SDS011;37298;42.688;23.312;2024-03-17T05:45:10;33.95;;;19.33;;
51224;SDS011;37298;42.688;23.312;2024-03-17T05:47:37;31.33;;;20.00;;
51224;SDS011;37298;42.688;23.312;2024-03-17T05:50:05;35.38;;;18.77;;
51224;SDS011;37298;42.688;23.312;2024-03-17T05:52:31;31.73;;;18.83;;
51224;SDS011;37298;42.688;23.312;2024-03-17T05:54:58;33.70;;;19.85;;
51224;SDS011;37298;42.688;23.312;2024-03-17T05:57:24;32.03;;;20.00;;
51224;SDS011;37298;42.688;23.312;2024-03-17T05:59:51;35.88;;;20.27;;
51224;SDS011;37298;42.688;23.312;2024-03-17T06:02:17;32.80;;;20.00;;
51224;SDS011;37298;42.688;23.312;2024-03-17T06:04:44;33.83;;;20.65;;
51224;SDS011;37298;42.688;23.312;2024-03-17T06:07:11;35.50;;;22.73;;
51224;SDS011;37298;42.688;23.312;2024-03-17T06:09:37;29.83;;;19.85;;
51224;SDS011;37298;42.688;23.312;2024-03-17T06:12:04;55.15;;;21.52;;
51224;SDS011;37298;42.688;23.312;2024-03-17T06:14:31;33.20;;;19.65;;
51224;SDS011;37298;42.688;23.312;2024-03-17T06:16:59;34.78;;;20.02;;
51224;SDS011;37298;42.688;23.312;2024-03-17T06:19:26;33.03;;;19.45;;
51224;SDS011;37298;42.688;23.312;2024-03-17T06:21:52;26.58;;;18.27;;
51224;SDS011;37298;42.688;23.312;2024-03-17T06:24:20;36.50;;;20.35;;
51224;SDS011;37298;42.688;23.312;2024-03-17T06:26:47;29.70;;;20.23;;
51224;SDS011;37298;42.688;23.312;2024-03-17T06:29:14;35.03;;;20.10;;
51224;SDS011;37298;42.688;23.312;2024-03-17T06:31:41;37.58;;;21.10;;
51224;SDS011;37298;42.688;23.312;2024-03-17T06:34:07;29.58;;;19.88;;
51224;SDS011;37298;42.688;23.312;2024-03-17T06:36:34;27.65;;;18.80;;
51224;SDS011;37298;42.688;23.312;2024-03-17T06:39:00;30.35;;;19.45;;
51224;SDS011;37298;42.688;23.312;2024-03-17T06:41:28;33.50;;;19.45;;
51224;SDS011;37298;42.688;23.312;2024-03-17T06:43:54;28.63;;;18.15;;
51224;SDS011;37298;42.688;23.312;2024-03-17T06:46:20;31.38;;;18.85;;
51224;SDS011;37298;42.688;23.312;2024-03-17T06:48:47;30.45;;;19.77;;
51224;SDS011;37298;42.688;23.312;2024-03-17T06:51:13;30.17;;;19.45;;
51224;SDS011;37298;42.688;23.312;2024-03-17T06:53:40;31.23;;;18.45;;
51224;SDS011;37298;42.688;23.312;2024-03-17T06:56:07;37.38;;;18.15;;
51224;SDS011;37298;42.688;23.312;2024-03-17T06:58:35;32.53;;;18.38;;
51224;SDS011;37298;42.688;23.312;2024-03-17T07:01:01;28.52;;;16.73;;
51224;SDS011;37298;42.688;23.312;2024-03-17T07:03:28;30.90;;;17.77;;
51224;SDS011;37298;42.688;23.312;2024-03-17T07:05:55;28.58;;;18.10;;
51224;SDS011;37298;42.688;23.312;2024-03-17T07:08:22;33.05;;;17.38;;
51224;SDS011;37298;42.688;23.312;2024-03-17T07:10:55;27.80;;;16.65;;
51224;SDS011;37298;42.688;23.312;2024-03-17T07:13:22;27.55;;;16.88;;
51224;SDS011;37298;42.688;23.312;2024-03-17T07:15:49;25.45;;;16.65;;
51224;SDS011;37298;42.688;23.312;2024-03-17T07:18:15;27.52;;;17.58;;
51224;SDS011;37298;42.688;23.312;2024-03-17T07:20:42;28.42;;;17.95;;
51224;SDS011;37298;42.688;23.312;2024-03-17T07:23:09;25.08;;;16.65;;
51224;SDS011;37298;42.688;23.312;2024-03-17T07:25:36;25.90;;;16.13;;
51224;SDS011;37298;42.688;23.312;2024-03-17T07:28:02;25.33;;;17.20;;
51224;SDS011;37298;42.688;23.312;2024-03-17T07:30:29;27.45;;;16.08;;
51224;SDS011;37298;42.688;23.312;2024-03-17T07:32:56;25.50;;;15.07;;
51224;SDS011;37298;42.688;23.312;2024-03-17T07:35:23;25.08;;;15.63;;
51224;SDS011;37298;42.688;23.312;2024-03-17T07:37:49;22.52;;;15.52;;
51224;SDS011;37298;42.688;23.312;2024-03-17T07:40:16;25.42;;;15.90;;
51224;SDS011;37298;42.688;23.312;2024-03-17T07:42:43;25.48;;;16.15;;
51224;SDS011;37298;42.688;23.312;2024-03-17T07:45:10;27.38;;;15.50;;
51224;SDS011;37298;42.688;23.312;2024-03-17T07:47:37;27.17;;;16.75;;
51224;SDS011;37298;42.688;23.312;2024-03-17T07:50:05;23.38;;;14.10;;
51224;SDS011;37298;42.688;23.312;2024-03-17T07:52:32;24.10;;;13.35;;
51224;SDS011;37298;42.688;23.312;2024-03-17T07:54:59;23.27;;;12.55;;
51224;SDS011;37298;42.688;23.312;2024-03-17T07:57:25;22.13;;;12.55;;
51224;SDS011;37298;42.688;23.312;2024-03-17T07:59:52;18.30;;;12.27;;
51224;SDS011;37298;42.688;23.312;2024-03-17T08:02:19;17.48;;;10.55;;
51224;SDS011;37298;42.688;23.312;2024-03-17T08:04:45;17.30;;;10.68;;
51224;SDS011;37298;42.688;23.312;2024-03-17T08:07:13;18.77;;;11.30;;
51224;SDS011;37298;42.688;23.312;2024-03-17T08:09:39;18.48;;;11.60;;
51224;SDS011;37298;42.688;23.312;2024-03-17T08:12:06;18.25;;;11.40;;
51224;SDS011;37298;42.688;23.312;2024-03-17T08:14:32;19.92;;;11.57;;
51224;SDS011;37298;42.688;23.312;2024-03-17T08:16:59;18.13;;;11.55;;
51224;SDS011;37298;42.688;23.312;2024-03-17T08:19:25;16.00;;;10.35;;
51224;SDS011;37298;42.688;23.312;2024-03-17T08:21:51;17.08;;;11.65;;
51224;SDS011;37298;42.688;23.312;2024-03-17T08:24:18;18.35;;;12.05;;
51224;SDS011;37298;42.688;23.312;2024-03-17T08:26:45;17.48;;;11.63;;
51224;SDS011;37298;42.688;23.312;2024-03-17T08:29:11;17.95;;;11.30;;
51224;SDS011;37298;42.688;23.312;2024-03-17T08:31:38;17.00;;;10.35;;
51224;SDS011;37298;42.688;23.312;2024-03-17T08:34:04;15.93;;;9.73;;
51224;SDS011;37298;42.688;23.312;2024-03-17T08:36:31;15.50;;;10.45;;
51224;SDS011;37298;42.688;23.312;2024-03-17T08:38:57;18.88;;;10.05;;
51224;SDS011;37298;42.688;23.312;2024-03-17T08:41:25;14.57;;;9.55;;
51224;SDS011;37298;42.688;23.312;2024-03-17T08:43:51;13.30;;;9.25;;
51224;SDS011;37298;42.688;23.312;2024-03-17T08:46:17;18.27;;;10.73;;
51224;SDS011;37298;42.688;23.312;2024-03-17T08:48:44;15.98;;;8.90;;
51224;SDS011;37298;42.688;23.312;2024-03-17T08:51:11;16.70;;;9.30;;
51224;SDS011;37298;42.688;23.312;2024-03-17T08:53:37;16.40;;;10.00;;
51224;SDS011;37298;42.688;23.312;2024-03-17T08:56:05;17.33;;;10.57;;
51224;SDS011;37298;42.688;23.312;2024-03-17T08:58:33;18.23;;;10.90;;
51224;SDS011;37298;42.688;23.312;2024-03-17T09:01:02;18.33;;;12.75;;
51224;SDS011;37298;42.688;23.312;2024-03-17T09:03:29;17.55;;;11.65;;
51224;SDS011;37298;42.688;23.312;2024-03-17T09:05:55;20.25;;;11.15;;
51224;SDS011;37298;42.688;23.312;2024-03-17T09:08:23;20.10;;;11.27;;
51224;SDS011;37298;42.688;23.312;2024-03-17T09:10:49;22.35;;;10.90;;
51224;SDS011;37298;42.688;23.312;2024-03-17T09:13:17;17.25;;;11.82;;
51224;SDS011;37298;42.688;23.312;2024-03-17T09:15:50;17.33;;;11.75;;
51224;SDS011;37298;42.688;23.312;2024-03-17T09:18:16;19.17;;;12.23;;
51224;SDS011;37298;42.688;23.312;2024-03-17T09:20:42;17.30;;;12.13;;
51224;SDS011;37298;42.688;23.312;2024-03-17T09:23:09;16.85;;;11.98;;
51224;SDS011;37298;42.688;23.312;2024-03-17T09:25:35;16.60;;;11.32;;
51224;SDS011;37298;42.688;23.312;2024-03-17T09:28:02;15.82;;;10.63;;
51224;SDS011;37298;42.688;23.312;2024-03-17T09:30:29;17.70;;;10.85;;
51224;SDS011;37298;42.688;23.312;2024-03-17T09:32:56;18.63;;;11.43;;
51224;SDS011;37298;42.688;23.312;2024-03-17T09:35:23;20.52;;;10.80;;
51224;SDS011;37298;42.688;23.312;2024-03-17T09:37:49;13.93;;;10.27;;
51224;SDS011;37298;42.688;23.312;2024-03-17T09:40:15;14.38;;;9.98;;
51224;SDS011;37298;42.688;23.312;2024-03-17T09:42:42;17.58;;;10.25;;
51224;SDS011;37298;42.688;23.312;2024-03-17T09:45:09;15.35;;;9.98;;
51224;SDS011;37298;42.688;23.312;2024-03-17T09:47:37;12.05;;;8.68;;
51224;SDS011;37298;42.688;23.312;2024-03-17T09:50:05;14.07;;;9.18;;
51224;SDS011;37298;42.688;23.312;2024-03-17T09:52:38;18.65;;;8.30;;
51224;SDS011;37298;42.688;23.312;2024-03-17T09:55:08;10.38;;;7.70;;
51224;SDS011;37298;42.688;23.312;2024-03-17T09:57:35;11.32;;;8.10;;
51224;SDS011;37298;42.688;23.312;2024-03-17T10:00:04;8.45;;;5.93;;
51224;SDS011;37298;42.688;23.312;2024-03-17T10:02:31;8.65;;;6.03;;
51224;SDS011;37298;42.688;23.312;2024-03-17T10:04:57;8.88;;;6.75;;
51224;SDS011;37298;42.688;23.312;2024-03-17T10:07:31;9.77;;;5.85;;
51224;SDS011;37298;42.688;23.312;2024-03-17T10:10:10;7.90;;;5.15;;
51224;SDS011;37298;42.688;23.312;2024-03-17T10:12:38;6.05;;;4.30;;
51224;SDS011;37298;42.688;23.312;2024-03-17T10:15:04;7.85;;;4.90;;
51224;SDS011;37298;42.688;23.312;2024-03-17T10:17:31;9.73;;;6.13;;
51224;SDS011;37298;42.688;23.312;2024-03-17T10:20:14;8.90;;;5.45;;
51224;SDS011;37298;42.688;23.312;2024-03-17T10:25:23;6.72;;;5.07;;
51224;SDS011;37298;42.688;23.312;2024-03-17T10:27:50;5.75;;;4.68;;
51224;SDS011;37298;42.688;23.312;2024-03-17T10:30:18;6.03;;;3.53;;
51224;SDS011;37298;42.688;23.312;2024-03-17T10:32:45;5.07;;;3.67;;
51224;SDS011;37298;42.688;23.312;2024-03-17T10:35:25;5.68;;;4.30;;
51224;SDS011;37298;42.688;23.312;2024-03-17T10:37:55;5.18;;;3.10;;
51224;SDS011;37298;42.688;23.312;2024-03-17T10:40:23;6.45;;;3.05;;
51224;SDS011;37298;42.688;23.312;2024-03-17T10:42:49;6.00;;;3.65;;
51224;SDS011;37298;42.688;23.312;2024-03-17T10:45:16;5.97;;;3.88;;
51224;SDS011;37298;42.688;23.312;2024-03-17T10:47:43;4.88;;;4.13;;
51224;SDS011;37298;42.688;23.312;2024-03-17T10:50:15;5.28;;;3.65;;
51224;SDS011;37298;42.688;23.312;2024-03-17T10:52:44;8.82;;;4.97;;
51224;SDS011;37298;42.688;23.312;2024-03-17T10:55:13;6.80;;;3.67;;
51224;SDS011;37298;42.688;23.312;2024-03-17T10:57:46;4.57;;;3.65;;
51224;SDS011;37298;42.688;23.312;2024-03-17T11:00:14;6.87;;;3.43;;
51224;SDS011;37298;42.688;23.312;2024-03-17T11:02:43;5.65;;;4.00;;
51224;SDS011;37298;42.688;23.312;2024-03-17T11:05:11;6.93;;;3.47;;
51224;SDS011;37298;42.688;23.312;2024-03-17T11:07:40;5.15;;;4.00;;
51224;SDS011;37298;42.688;23.312;2024-03-17T11:10:14;7.68;;;4.28;;
51224;SDS011;37298;42.688;23.312;2024-03-17T11:12:42;5.32;;;4.43;;
51224;SDS011;37298;42.688;23.312;2024-03-17T11:20:43;8.90;;;4.55;;
51224;SDS011;37298;42.688;23.312;2024-03-17T11:23:09;6.32;;;5.10;;
51224;SDS011;37298;42.688;23.312;2024-03-17T11:25:51;5.93;;;4.40;;
51224;SDS011;37298;42.688;23.312;2024-03-17T11:33:51;8.25;;;4.47;;
51224;SDS011;37298;42.688;23.312;2024-03-17T11:36:30;5.00;;;3.60;;
51224;SDS011;37298;42.688;23.312;2024-03-17T11:38:59;5.70;;;3.80;;
51224;SDS011;37298;42.688;23.312;2024-03-17T11:41:36;4.57;;;3.90;;
51224;SDS011;37298;42.688;23.312;2024-03-17T11:44:13;7.82;;;3.97;;
51224;SDS011;37298;42.688;23.312;2024-03-17T11:46:39;5.38;;;4.15;;
51224;SDS011;37298;42.688;23.312;2024-03-17T11:49:07;5.72;;;4.03;;
51224;SDS011;37298;42.688;23.312;2024-03-17T11:51:34;8.20;;;4.45;;
51224;SDS011;37298;42.688;23.312;2024-03-17T11:54:00;4.78;;;3.70;;
51224;SDS011;37298;42.688;23.312;2024-03-17T11:56:26;5.50;;;4.30;;
51224;SDS011;37298;42.688;23.312;2024-03-17T12:01:20;5.85;;;4.20;;
51224;SDS011;37298;42.688;23.312;2024-03-17T12:03:47;5.63;;;3.17;;
51224;SDS011;37298;42.688;23.312;2024-03-17T12:06:14;6.65;;;4.53;;
51224;SDS011;37298;42.688;23.312;2024-03-17T12:08:40;7.05;;;4.10;;
51224;SDS011;37298;42.688;23.312;2024-03-17T12:11:14;7.85;;;4.68;;
51224;SDS011;37298;42.688;23.312;2024-03-17T12:13:41;12.70;;;4.32;;
51224;SDS011;37298;42.688;23.312;2024-03-17T12:16:10;4.75;;;3.72;;
51224;SDS011;37298;42.688;23.312;2024-03-17T12:18:37;7.53;;;4.40;;
51224;SDS011;37298;42.688;23.312;2024-03-17T12:21:11;6.93;;;4.40;;
51224;SDS011;37298;42.688;23.312;2024-03-17T12:23:40;12.02;;;4.28;;
51224;SDS011;37298;42.688;23.312;2024-03-17T12:26:07;8.95;;;5.15;;
51224;SDS011;37298;42.688;23.312;2024-03-17T12:28:44;4.18;;;3.03;;
51224;SDS011;37298;42.688;23.312;2024-03-17T12:31:10;7.82;;;5.03;;
51224;SDS011;37298;42.688;23.312;2024-03-17T12:33:37;6.68;;;4.65;;
51224;SDS011;37298;42.688;23.312;2024-03-17T12:36:10;5.55;;;4.13;;
51224;SDS011;37298;42.688;23.312;2024-03-17T12:38:38;14.10;;;5.32;;
51224;SDS011;37298;42.688;23.312;2024-03-17T12:41:15;7.53;;;5.25;;
51224;SDS011;37298;42.688;23.312;2024-03-17T12:43:47;8.45;;;4.70;;
51224;SDS011;37298;42.688;23.312;2024-03-17T12:46:14;7.60;;;5.10;;
51224;SDS011;37298;42.688;23.312;2024-03-17T12:48:41;7.40;;;5.20;;
51224;SDS011;37298;42.688;23.312;2024-03-17T12:51:12;7.43;;;5.57;;
51224;SDS011;37298;42.688;23.312;2024-03-17T12:53:39;6.28;;;5.15;;
51224;SDS011;37298;42.688;23.312;2024-03-17T12:56:06;10.20;;;5.60;;
51224;SDS011;37298;42.688;23.312;2024-03-17T12:59:05;7.55;;;5.40;;
51224;SDS011;37298;42.688;23.312;2024-03-17T13:01:50;7.22;;;5.43;;
51224;SDS011;37298;42.688;23.312;2024-03-17T13:04:16;7.85;;;5.00;;
51224;SDS011;37298;42.688;23.312;2024-03-17T13:06:43;8.88;;;5.03;;
51224;SDS011;37298;42.688;23.312;2024-03-17T13:09:10;8.85;;;5.60;;
51224;SDS011;37298;42.688;23.312;2024-03-17T13:11:37;6.30;;;4.03;;
51224;SDS011;37298;42.688;23.312;2024-03-17T13:14:03;9.50;;;5.38;;
51224;SDS011;37298;42.688;23.312;2024-03-17T13:16:30;8.13;;;6.10;;
51224;SDS011;37298;42.688;23.312;2024-03-17T13:18:57;7.45;;;5.38;;
51224;SDS011;37298;42.688;23.312;2024-03-17T13:21:23;9.10;;;5.50;;
51224;SDS011;37298;42.688;23.312;2024-03-17T13:23:50;7.47;;;5.80;;
51224;SDS011;37298;42.688;23.312;2024-03-17T13:26:16;11.60;;;6.30;;
51224;SDS011;37298;42.688;23.312;2024-03-17T13:28:44;9.88;;;6.80;;
51224;SDS011;37298;42.688;23.312;2024-03-17T13:31:10;8.95;;;6.28;;
51224;SDS011;37298;42.688;23.312;2024-03-17T13:33:36;10.95;;;6.07;;
51224;SDS011;37298;42.688;23.312;2024-03-17T13:36:03;11.60;;;6.35;;
51224;SDS011;37298;42.688;23.312;2024-03-17T13:38:30;8.90;;;6.03;;
51224;SDS011;37298;42.688;23.312;2024-03-17T13:40:57;9.80;;;6.30;;
51224;SDS011;37298;42.688;23.312;2024-03-17T13:43:23;13.65;;;7.00;;
51224;SDS011;37298;42.688;23.312;2024-03-17T13:45:51;8.88;;;6.28;;
51224;SDS011;37298;42.688;23.312;2024-03-17T13:48:17;13.07;;;6.40;;
51224;SDS011;37298;42.688;23.312;2024-03-17T13:50:44;11.30;;;7.00;;
51224;SDS011;37298;42.688;23.312;2024-03-17T13:53:12;7.78;;;6.45;;
51224;SDS011;37298;42.688;23.312;2024-03-17T13:55:39;11.40;;;6.72;;
51224;SDS011;37298;42.688;23.312;2024-03-17T13:58:06;9.68;;;7.15;;
51224;SDS011;37298;42.688;23.312;2024-03-17T14:00:32;9.75;;;6.43;;
51224;SDS011;37298;42.688;23.312;2024-03-17T14:03:02;10.60;;;7.35;;
51224;SDS011;37298;42.688;23.312;2024-03-17T14:05:28;9.23;;;6.53;;
51224;SDS011;37298;42.688;23.312;2024-03-17T14:07:55;8.20;;;5.93;;
51224;SDS011;37298;42.688;23.312;2024-03-17T14:10:21;10.43;;;6.70;;
51224;SDS011;37298;42.688;23.312;2024-03-17T14:12:49;10.18;;;6.55;;
51224;SDS011;37298;42.688;23.312;2024-03-17T14:15:16;12.40;;;6.78;;
51224;SDS011;37298;42.688;23.312;2024-03-17T14:17:43;9.90;;;6.50;;
51224;SDS011;37298;42.688;23.312;2024-03-17T14:20:11;10.70;;;6.95;;
51224;SDS011;37298;42.688;23.312;2024-03-17T14:22:39;11.18;;;6.70;;
51224;SDS011;37298;42.688;23.312;2024-03-17T14:25:07;11.30;;;6.13;;
51224;SDS011;37298;42.688;23.312;2024-03-17T14:27:36;10.82;;;6.93;;
51224;SDS011;37298;42.688;23.312;2024-03-17T14:30:02;11.40;;;6.72;;
51224;SDS011;37298;42.688;23.312;2024-03-17T14:32:33;8.13;;;5.72;;
51224;SDS011;37298;42.688;23.312;2024-03-17T14:34:59;9.27;;;7.00;;
51224;SDS011;37298;42.688;23.312;2024-03-17T14:37:27;12.30;;;7.65;;
51224;SDS011;37298;42.688;23.312;2024-03-17T14:39:54;9.07;;;6.57;;